sensor_id;sensor_type;location;lat;lon;timestamp;P1;durP1;ratioP1;P2;durP2;ratioP2
49237;SDS011;35069;47.906;1.892;2024-01-30T00:01:06;5.35;;;3.80;;
49237;SDS011;35069;47.906;1.892;2024-01-30T00:03:32;5.18;;;3.90;;
49237;SDS011;35069;47.906;1.892;2024-01-30T00:05:57;5.97;;;3.85;;
49237;SDS011;35069;47.906;1.892;2024-01-30T00:08:23;6.32;;;3.97;;
49237;SDS011;35069;47.906;1.892;2024-01-30T00:10:48;10.48;;;4.28;;
49237;SDS011;35069;47.906;1.892;2024-01-30T00:13:14;6.38;;;3.55;;
49237;SDS011;35069;47.906;1.892;2024-01-30T00:15:42;6.55;;;3.78;;
49237;SDS011;35069;47.906;1.892;2024-01-30T00:18:08;8.55;;;4.47;;
49237;SDS011;35069;47.906;1.892;2024-01-30T00:20:33;5.90;;;4.47;;
49237;SDS011;35069;47.906;1.892;2024-01-30T00:22:59;7.72;;;4.55;;
49237;SDS011;35069;47.906;1.892;2024-01-30T00:25:25;7.82;;;4.40;;
49237;SDS011;35069;47.906;1.892;2024-01-30T00:27:50;6.13;;;3.65;;
49237;SDS011;35069;47.906;1.892;2024-01-30T00:30:16;7.43;;;4.57;;
49237;SDS011;35069;47.906;1.892;2024-01-30T00:32:42;6.82;;;4.32;;
49237;SDS011;35069;47.906;1.892;2024-01-30T00:35:07;5.55;;;3.58;;
49237;SDS011;35069;47.906;1.892;2024-01-30T00:37:35;5.63;;;4.07;;
49237;SDS011;35069;47.906;1.892;2024-01-30T00:40:00;5.20;;;3.90;;
49237;SDS011;35069;47.906;1.892;2024-01-30T00:42:26;4.93;;;3.20;;
49237;SDS011;35069;47.906;1.892;2024-01-30T00:44:52;5.03;;;3.53;;
49237;SDS011;35069;47.906;1.892;2024-01-30T00:47:17;9.35;;;3.58;;
49237;SDS011;35069;47.906;1.892;2024-01-30T00:49:43;5.90;;;3.90;;
49237;SDS011;35069;47.906;1.892;2024-01-30T00:52:09;11.15;;;4.95;;
49237;SDS011;35069;47.906;1.892;2024-01-30T00:54:35;5.82;;;3.55;;
49237;SDS011;35069;47.906;1.892;2024-01-30T00:57:00;6.82;;;4.50;;
49237;SDS011;35069;47.906;1.892;2024-01-30T00:59:26;9.18;;;3.80;;
49237;SDS011;35069;47.906;1.892;2024-01-30T01:01:51;9.25;;;4.20;;
49237;SDS011;35069;47.906;1.892;2024-01-30T01:04:17;8.15;;;4.38;;
49237;SDS011;35069;47.906;1.892;2024-01-30T01:06:43;7.05;;;4.72;;
49237;SDS011;35069;47.906;1.892;2024-01-30T01:09:09;6.97;;;4.35;;
49237;SDS011;35069;47.906;1.892;2024-01-30T01:11:36;5.57;;;4.03;;
49237;SDS011;35069;47.906;1.892;2024-01-30T01:14:03;5.43;;;4.43;;
49237;SDS011;35069;47.906;1.892;2024-01-30T01:16:29;8.10;;;4.10;;
49237;SDS011;35069;47.906;1.892;2024-01-30T01:18:54;5.88;;;3.75;;
49237;SDS011;35069;47.906;1.892;2024-01-30T01:21:20;6.07;;;4.00;;
49237;SDS011;35069;47.906;1.892;2024-01-30T01:23:46;6.53;;;4.10;;
49237;SDS011;35069;47.906;1.892;2024-01-30T01:26:11;13.55;;;4.60;;
49237;SDS011;35069;47.906;1.892;2024-01-30T01:28:39;4.68;;;3.25;;
49237;SDS011;35069;47.906;1.892;2024-01-30T01:31:05;11.88;;;4.20;;
49237;SDS011;35069;47.906;1.892;2024-01-30T01:33:32;6.30;;;4.05;;
49237;SDS011;35069;47.906;1.892;2024-01-30T01:35:58;7.22;;;3.70;;
49237;SDS011;35069;47.906;1.892;2024-01-30T01:38:27;11.85;;;3.85;;
49237;SDS011;35069;47.906;1.892;2024-01-30T01:40:53;7.22;;;3.72;;
49237;SDS011;35069;47.906;1.892;2024-01-30T01:43:18;4.25;;;3.33;;
49237;SDS011;35069;47.906;1.892;2024-01-30T01:45:44;6.18;;;3.40;;
49237;SDS011;35069;47.906;1.892;2024-01-30T01:48:10;5.75;;;3.60;;
49237;SDS011;35069;47.906;1.892;2024-01-30T01:50:37;6.07;;;3.70;;
49237;SDS011;35069;47.906;1.892;2024-01-30T01:53:03;7.60;;;3.42;;
49237;SDS011;35069;47.906;1.892;2024-01-30T01:55:32;3.85;;;3.13;;
49237;SDS011;35069;47.906;1.892;2024-01-30T01:57:59;5.25;;;3.28;;
49237;SDS011;35069;47.906;1.892;2024-01-30T02:00:25;5.07;;;3.38;;
49237;SDS011;35069;47.906;1.892;2024-01-30T02:02:51;8.32;;;3.47;;
49237;SDS011;35069;47.906;1.892;2024-01-30T02:05:19;4.93;;;3.38;;
49237;SDS011;35069;47.906;1.892;2024-01-30T02:07:45;5.68;;;3.90;;
49237;SDS011;35069;47.906;1.892;2024-01-30T02:10:11;6.65;;;3.28;;
49237;SDS011;35069;47.906;1.892;2024-01-30T02:12:37;6.97;;;3.42;;
49237;SDS011;35069;47.906;1.892;2024-01-30T02:15:03;4.30;;;3.08;;
49237;SDS011;35069;47.906;1.892;2024-01-30T02:17:30;5.13;;;3.22;;
49237;SDS011;35069;47.906;1.892;2024-01-30T02:19:55;7.03;;;3.00;;
49237;SDS011;35069;47.906;1.892;2024-01-30T02:22:21;4.20;;;2.65;;
49237;SDS011;35069;47.906;1.892;2024-01-30T02:24:48;7.43;;;4.43;;
49237;SDS011;35069;47.906;1.892;2024-01-30T02:27:14;8.18;;;3.55;;
49237;SDS011;35069;47.906;1.892;2024-01-30T02:29:40;3.85;;;3.03;;
49237;SDS011;35069;47.906;1.892;2024-01-30T02:32:05;7.00;;;3.58;;
49237;SDS011;35069;47.906;1.892;2024-01-30T02:34:32;6.30;;;3.20;;
49237;SDS011;35069;47.906;1.892;2024-01-30T02:36:58;3.15;;;2.63;;
49237;SDS011;35069;47.906;1.892;2024-01-30T02:39:23;5.95;;;3.42;;
49237;SDS011;35069;47.906;1.892;2024-01-30T02:41:49;8.52;;;3.60;;
49237;SDS011;35069;47.906;1.892;2024-01-30T02:44:15;6.28;;;3.28;;
49237;SDS011;35069;47.906;1.892;2024-01-30T02:46:40;4.38;;;3.25;;
49237;SDS011;35069;47.906;1.892;2024-01-30T02:49:09;8.10;;;3.80;;
49237;SDS011;35069;47.906;1.892;2024-01-30T02:51:34;4.78;;;3.33;;
49237;SDS011;35069;47.906;1.892;2024-01-30T02:54:00;5.97;;;3.63;;
49237;SDS011;35069;47.906;1.892;2024-01-30T02:56:25;6.53;;;3.60;;
49237;SDS011;35069;47.906;1.892;2024-01-30T02:58:51;4.20;;;3.75;;
49237;SDS011;35069;47.906;1.892;2024-01-30T03:01:17;3.60;;;3.30;;
49237;SDS011;35069;47.906;1.892;2024-01-30T03:03:42;4.43;;;2.85;;
49237;SDS011;35069;47.906;1.892;2024-01-30T03:06:08;5.70;;;3.25;;
49237;SDS011;35069;47.906;1.892;2024-01-30T03:08:34;9.80;;;3.35;;
49237;SDS011;35069;47.906;1.892;2024-01-30T03:11:00;4.35;;;2.75;;
49237;SDS011;35069;47.906;1.892;2024-01-30T03:13:26;7.63;;;3.63;;
49237;SDS011;35069;47.906;1.892;2024-01-30T03:15:52;5.57;;;3.45;;
49237;SDS011;35069;47.906;1.892;2024-01-30T03:18:17;10.48;;;3.47;;
49237;SDS011;35069;47.906;1.892;2024-01-30T03:20:43;9.15;;;3.53;;
49237;SDS011;35069;47.906;1.892;2024-01-30T03:23:08;4.65;;;3.00;;
49237;SDS011;35069;47.906;1.892;2024-01-30T03:25:34;3.83;;;3.22;;
49237;SDS011;35069;47.906;1.892;2024-01-30T03:28:00;4.63;;;3.03;;
49237;SDS011;35069;47.906;1.892;2024-01-30T03:30:25;7.07;;;2.78;;
49237;SDS011;35069;47.906;1.892;2024-01-30T03:32:51;5.70;;;3.10;;
49237;SDS011;35069;47.906;1.892;2024-01-30T03:35:18;4.45;;;3.05;;
49237;SDS011;35069;47.906;1.892;2024-01-30T03:37:44;6.68;;;2.80;;
49237;SDS011;35069;47.906;1.892;2024-01-30T03:40:09;4.70;;;2.88;;
49237;SDS011;35069;47.906;1.892;2024-01-30T03:42:35;4.50;;;3.03;;
49237;SDS011;35069;47.906;1.892;2024-01-30T03:45:01;9.13;;;3.55;;
49237;SDS011;35069;47.906;1.892;2024-01-30T03:47:27;6.35;;;3.47;;
49237;SDS011;35069;47.906;1.892;2024-01-30T03:49:53;7.07;;;3.08;;
49237;SDS011;35069;47.906;1.892;2024-01-30T03:52:18;5.07;;;3.50;;
49237;SDS011;35069;47.906;1.892;2024-01-30T03:54:44;5.60;;;3.50;;
49237;SDS011;35069;47.906;1.892;2024-01-30T03:57:09;5.65;;;2.88;;
49237;SDS011;35069;47.906;1.892;2024-01-30T03:59:35;6.10;;;3.13;;
49237;SDS011;35069;47.906;1.892;2024-01-30T04:02:00;4.78;;;3.25;;
49237;SDS011;35069;47.906;1.892;2024-01-30T04:04:26;6.00;;;3.05;;
49237;SDS011;35069;47.906;1.892;2024-01-30T04:06:51;8.23;;;3.35;;
49237;SDS011;35069;47.906;1.892;2024-01-30T04:09:17;3.47;;;2.97;;
49237;SDS011;35069;47.906;1.892;2024-01-30T04:11:43;7.18;;;3.42;;
49237;SDS011;35069;47.906;1.892;2024-01-30T04:14:09;7.03;;;3.25;;
49237;SDS011;35069;47.906;1.892;2024-01-30T04:16:34;6.28;;;2.95;;
49237;SDS011;35069;47.906;1.892;2024-01-30T04:19:01;4.68;;;3.08;;
49237;SDS011;35069;47.906;1.892;2024-01-30T04:21:26;3.97;;;3.17;;
49237;SDS011;35069;47.906;1.892;2024-01-30T04:23:52;5.20;;;2.72;;
49237;SDS011;35069;47.906;1.892;2024-01-30T04:26:18;6.32;;;3.13;;
49237;SDS011;35069;47.906;1.892;2024-01-30T04:28:44;5.88;;;3.38;;
49237;SDS011;35069;47.906;1.892;2024-01-30T04:31:10;3.58;;;2.95;;
49237;SDS011;35069;47.906;1.892;2024-01-30T04:33:36;5.97;;;2.88;;
49237;SDS011;35069;47.906;1.892;2024-01-30T04:36:01;5.03;;;2.85;;
49237;SDS011;35069;47.906;1.892;2024-01-30T04:38:28;6.00;;;3.33;;
49237;SDS011;35069;47.906;1.892;2024-01-30T04:40:54;5.40;;;2.15;;
49237;SDS011;35069;47.906;1.892;2024-01-30T04:43:19;4.10;;;2.65;;
49237;SDS011;35069;47.906;1.892;2024-01-30T04:45:45;6.70;;;3.13;;
49237;SDS011;35069;47.906;1.892;2024-01-30T04:48:11;2.92;;;2.65;;
49237;SDS011;35069;47.906;1.892;2024-01-30T04:50:36;5.43;;;2.88;;
49237;SDS011;35069;47.906;1.892;2024-01-30T04:53:02;6.28;;;2.60;;
49237;SDS011;35069;47.906;1.892;2024-01-30T04:55:28;6.75;;;3.60;;
49237;SDS011;35069;47.906;1.892;2024-01-30T04:57:55;9.20;;;4.47;;
49237;SDS011;35069;47.906;1.892;2024-01-30T05:00:21;5.10;;;2.65;;
49237;SDS011;35069;47.906;1.892;2024-01-30T05:02:47;5.63;;;2.97;;
49237;SDS011;35069;47.906;1.892;2024-01-30T05:05:12;6.50;;;2.97;;
49237;SDS011;35069;47.906;1.892;2024-01-30T05:07:38;4.88;;;2.85;;
49237;SDS011;35069;47.906;1.892;2024-01-30T05:10:06;6.88;;;3.00;;
49237;SDS011;35069;47.906;1.892;2024-01-30T05:12:33;5.07;;;3.08;;
49237;SDS011;35069;47.906;1.892;2024-01-30T05:14:59;2.72;;;2.35;;
49237;SDS011;35069;47.906;1.892;2024-01-30T05:17:24;8.57;;;3.05;;
49237;SDS011;35069;47.906;1.892;2024-01-30T05:19:50;4.63;;;2.92;;
49237;SDS011;35069;47.906;1.892;2024-01-30T05:22:16;7.10;;;3.17;;
49237;SDS011;35069;47.906;1.892;2024-01-30T05:24:43;5.03;;;3.60;;
49237;SDS011;35069;47.906;1.892;2024-01-30T05:27:09;5.90;;;2.70;;
49237;SDS011;35069;47.906;1.892;2024-01-30T05:29:35;4.60;;;2.85;;
49237;SDS011;35069;47.906;1.892;2024-01-30T05:32:00;3.75;;;2.72;;
49237;SDS011;35069;47.906;1.892;2024-01-30T05:34:26;5.38;;;3.17;;
49237;SDS011;35069;47.906;1.892;2024-01-30T05:36:52;3.40;;;3.08;;
49237;SDS011;35069;47.906;1.892;2024-01-30T05:39:18;7.00;;;3.00;;
49237;SDS011;35069;47.906;1.892;2024-01-30T05:41:43;7.15;;;3.55;;
49237;SDS011;35069;47.906;1.892;2024-01-30T05:44:09;8.95;;;3.67;;
49237;SDS011;35069;47.906;1.892;2024-01-30T05:46:35;2.67;;;2.38;;
49237;SDS011;35069;47.906;1.892;2024-01-30T05:49:03;5.70;;;3.40;;
49237;SDS011;35069;47.906;1.892;2024-01-30T05:51:29;6.30;;;3.53;;
49237;SDS011;35069;47.906;1.892;2024-01-30T05:53:54;6.35;;;3.20;;
49237;SDS011;35069;47.906;1.892;2024-01-30T05:56:20;4.80;;;3.83;;
49237;SDS011;35069;47.906;1.892;2024-01-30T05:58:45;6.05;;;3.42;;
49237;SDS011;35069;47.906;1.892;2024-01-30T06:01:11;9.15;;;3.30;;
49237;SDS011;35069;47.906;1.892;2024-01-30T06:03:37;4.38;;;3.50;;
49237;SDS011;35069;47.906;1.892;2024-01-30T06:06:03;9.95;;;4.28;;
49237;SDS011;35069;47.906;1.892;2024-01-30T06:08:29;8.55;;;6.03;;
49237;SDS011;35069;47.906;1.892;2024-01-30T06:10:55;4.78;;;3.58;;
49237;SDS011;35069;47.906;1.892;2024-01-30T06:13:20;6.75;;;3.33;;
49237;SDS011;35069;47.906;1.892;2024-01-30T06:15:46;5.32;;;2.92;;
49237;SDS011;35069;47.906;1.892;2024-01-30T06:18:11;4.50;;;2.83;;
49237;SDS011;35069;47.906;1.892;2024-01-30T06:20:37;7.43;;;3.40;;
49237;SDS011;35069;47.906;1.892;2024-01-30T06:23:02;5.60;;;3.65;;
49237;SDS011;35069;47.906;1.892;2024-01-30T06:25:28;10.18;;;3.60;;
49237;SDS011;35069;47.906;1.892;2024-01-30T06:27:53;5.38;;;3.28;;
49237;SDS011;35069;47.906;1.892;2024-01-30T06:30:19;3.70;;;3.00;;
49237;SDS011;35069;47.906;1.892;2024-01-30T06:32:45;8.27;;;3.53;;
49237;SDS011;35069;47.906;1.892;2024-01-30T06:35:10;5.25;;;3.38;;
49237;SDS011;35069;47.906;1.892;2024-01-30T06:37:36;5.18;;;3.13;;
49237;SDS011;35069;47.906;1.892;2024-01-30T06:40:02;4.88;;;4.22;;
49237;SDS011;35069;47.906;1.892;2024-01-30T06:42:29;11.20;;;4.03;;
49237;SDS011;35069;47.906;1.892;2024-01-30T06:44:55;7.05;;;4.72;;
49237;SDS011;35069;47.906;1.892;2024-01-30T06:47:20;7.07;;;4.10;;
49237;SDS011;35069;47.906;1.892;2024-01-30T06:49:46;5.70;;;3.20;;
49237;SDS011;35069;47.906;1.892;2024-01-30T06:52:12;4.95;;;3.70;;
49237;SDS011;35069;47.906;1.892;2024-01-30T06:54:37;7.68;;;3.85;;
49237;SDS011;35069;47.906;1.892;2024-01-30T06:57:03;4.18;;;3.47;;
49237;SDS011;35069;47.906;1.892;2024-01-30T06:59:29;5.53;;;3.28;;
49237;SDS011;35069;47.906;1.892;2024-01-30T07:01:54;6.30;;;3.58;;
49237;SDS011;35069;47.906;1.892;2024-01-30T07:04:21;10.73;;;3.63;;
49237;SDS011;35069;47.906;1.892;2024-01-30T07:06:46;5.40;;;4.15;;
49237;SDS011;35069;47.906;1.892;2024-01-30T07:09:12;3.35;;;2.95;;
49237;SDS011;35069;47.906;1.892;2024-01-30T07:11:38;4.90;;;3.58;;
49237;SDS011;35069;47.906;1.892;2024-01-30T07:14:04;6.90;;;3.95;;
49237;SDS011;35069;47.906;1.892;2024-01-30T07:16:30;7.13;;;3.58;;
49237;SDS011;35069;47.906;1.892;2024-01-30T07:18:55;5.03;;;3.13;;
49237;SDS011;35069;47.906;1.892;2024-01-30T07:21:21;7.35;;;3.50;;
49237;SDS011;35069;47.906;1.892;2024-01-30T07:23:52;8.18;;;3.10;;
49237;SDS011;35069;47.906;1.892;2024-01-30T07:26:19;5.93;;;3.63;;
49237;SDS011;35069;47.906;1.892;2024-01-30T07:28:48;5.82;;;3.40;;
49237;SDS011;35069;47.906;1.892;2024-01-30T07:31:15;3.60;;;3.30;;
49237;SDS011;35069;47.906;1.892;2024-01-30T07:33:40;7.05;;;3.10;;
49237;SDS011;35069;47.906;1.892;2024-01-30T07:36:06;6.63;;;3.85;;
49237;SDS011;35069;47.906;1.892;2024-01-30T07:38:31;5.35;;;3.15;;
49237;SDS011;35069;47.906;1.892;2024-01-30T07:40:57;7.00;;;3.70;;
49237;SDS011;35069;47.906;1.892;2024-01-30T07:43:23;5.80;;;4.03;;
49237;SDS011;35069;47.906;1.892;2024-01-30T07:45:49;6.18;;;4.32;;
49237;SDS011;35069;47.906;1.892;2024-01-30T07:48:14;8.18;;;4.50;;
49237;SDS011;35069;47.906;1.892;2024-01-30T07:50:40;7.55;;;3.78;;
49237;SDS011;35069;47.906;1.892;2024-01-30T07:53:06;22.77;;;5.95;;
49237;SDS011;35069;47.906;1.892;2024-01-30T07:55:31;19.83;;;5.32;;
49237;SDS011;35069;47.906;1.892;2024-01-30T07:57:57;19.88;;;5.30;;
49237;SDS011;35069;47.906;1.892;2024-01-30T08:00:26;9.57;;;4.43;;
49237;SDS011;35069;47.906;1.892;2024-01-30T08:02:54;9.70;;;4.97;;
49237;SDS011;35069;47.906;1.892;2024-01-30T08:05:20;9.95;;;5.15;;
49237;SDS011;35069;47.906;1.892;2024-01-30T08:07:47;5.75;;;4.53;;
49237;SDS011;35069;47.906;1.892;2024-01-30T08:10:16;7.43;;;4.15;;
49237;SDS011;35069;47.906;1.892;2024-01-30T08:12:43;10.93;;;4.82;;
49237;SDS011;35069;47.906;1.892;2024-01-30T08:15:09;13.30;;;5.15;;
49237;SDS011;35069;47.906;1.892;2024-01-30T08:17:37;9.40;;;4.95;;
49237;SDS011;35069;47.906;1.892;2024-01-30T08:20:02;12.23;;;6.18;;
49237;SDS011;35069;47.906;1.892;2024-01-30T08:22:29;9.98;;;6.05;;
49237;SDS011;35069;47.906;1.892;2024-01-30T08:24:55;10.48;;;4.38;;
49237;SDS011;35069;47.906;1.892;2024-01-30T08:27:21;14.55;;;4.75;;
49237;SDS011;35069;47.906;1.892;2024-01-30T08:29:46;9.73;;;4.40;;
49237;SDS011;35069;47.906;1.892;2024-01-30T08:32:12;5.78;;;3.67;;
49237;SDS011;35069;47.906;1.892;2024-01-30T08:34:38;7.22;;;4.43;;
49237;SDS011;35069;47.906;1.892;2024-01-30T08:37:03;7.60;;;4.28;;
49237;SDS011;35069;47.906;1.892;2024-01-30T08:39:29;12.30;;;4.10;;
49237;SDS011;35069;47.906;1.892;2024-01-30T08:41:55;6.35;;;3.97;;
49237;SDS011;35069;47.906;1.892;2024-01-30T08:44:21;5.60;;;3.20;;
49237;SDS011;35069;47.906;1.892;2024-01-30T08:46:46;4.38;;;3.45;;
49237;SDS011;35069;47.906;1.892;2024-01-30T08:49:12;7.78;;;3.95;;
49237;SDS011;35069;47.906;1.892;2024-01-30T08:51:41;10.20;;;4.43;;
49237;SDS011;35069;47.906;1.892;2024-01-30T08:54:07;7.97;;;3.50;;
49237;SDS011;35069;47.906;1.892;2024-01-30T08:56:32;4.55;;;3.70;;
49237;SDS011;35069;47.906;1.892;2024-01-30T08:58:58;3.10;;;2.78;;
49237;SDS011;35069;47.906;1.892;2024-01-30T09:01:24;7.35;;;3.63;;
49237;SDS011;35069;47.906;1.892;2024-01-30T09:03:50;4.97;;;3.10;;
49237;SDS011;35069;47.906;1.892;2024-01-30T09:06:16;7.32;;;3.25;;
49237;SDS011;35069;47.906;1.892;2024-01-30T09:08:41;4.45;;;3.00;;
49237;SDS011;35069;47.906;1.892;2024-01-30T09:11:10;7.28;;;3.85;;
49237;SDS011;35069;47.906;1.892;2024-01-30T09:13:37;12.23;;;3.83;;
49237;SDS011;35069;47.906;1.892;2024-01-30T09:16:03;4.35;;;3.80;;
49237;SDS011;35069;47.906;1.892;2024-01-30T09:18:29;7.07;;;3.47;;
49237;SDS011;35069;47.906;1.892;2024-01-30T09:20:54;6.05;;;3.55;;
49237;SDS011;35069;47.906;1.892;2024-01-30T09:23:20;5.93;;;3.33;;
49237;SDS011;35069;47.906;1.892;2024-01-30T09:25:46;5.93;;;3.40;;
49237;SDS011;35069;47.906;1.892;2024-01-30T09:28:12;7.63;;;4.75;;
49237;SDS011;35069;47.906;1.892;2024-01-30T09:30:38;8.70;;;3.90;;
49237;SDS011;35069;47.906;1.892;2024-01-30T09:33:04;5.95;;;3.53;;
49237;SDS011;35069;47.906;1.892;2024-01-30T09:35:31;5.22;;;3.15;;
49237;SDS011;35069;47.906;1.892;2024-01-30T09:37:57;4.43;;;3.35;;
49237;SDS011;35069;47.906;1.892;2024-01-30T09:40:23;8.35;;;3.47;;
49237;SDS011;35069;47.906;1.892;2024-01-30T09:42:52;4.90;;;3.50;;
49237;SDS011;35069;47.906;1.892;2024-01-30T09:45:20;3.65;;;3.30;;
49237;SDS011;35069;47.906;1.892;2024-01-30T09:47:49;4.82;;;3.20;;
49237;SDS011;35069;47.906;1.892;2024-01-30T09:50:15;8.25;;;4.35;;
49237;SDS011;35069;47.906;1.892;2024-01-30T09:52:42;10.60;;;4.00;;
49237;SDS011;35069;47.906;1.892;2024-01-30T09:55:09;10.20;;;4.10;;
49237;SDS011;35069;47.906;1.892;2024-01-30T09:57:35;5.97;;;4.03;;
49237;SDS011;35069;47.906;1.892;2024-01-30T10:00:01;7.57;;;4.35;;
49237;SDS011;35069;47.906;1.892;2024-01-30T10:02:29;5.70;;;3.95;;
49237;SDS011;35069;47.906;1.892;2024-01-30T10:04:57;7.25;;;5.00;;
49237;SDS011;35069;47.906;1.892;2024-01-30T10:07:24;7.43;;;4.07;;
49237;SDS011;35069;47.906;1.892;2024-01-30T10:09:49;12.90;;;4.57;;
49237;SDS011;35069;47.906;1.892;2024-01-30T10:12:15;7.57;;;4.47;;
49237;SDS011;35069;47.906;1.892;2024-01-30T10:14:41;6.85;;;3.65;;
49237;SDS011;35069;47.906;1.892;2024-01-30T10:17:08;6.07;;;4.13;;
49237;SDS011;35069;47.906;1.892;2024-01-30T10:19:35;24.55;;;4.90;;
49237;SDS011;35069;47.906;1.892;2024-01-30T10:22:02;10.77;;;4.55;;
49237;SDS011;35069;47.906;1.892;2024-01-30T10:24:31;6.28;;;4.00;;
49237;SDS011;35069;47.906;1.892;2024-01-30T10:26:58;8.45;;;4.20;;
49237;SDS011;35069;47.906;1.892;2024-01-30T10:29:24;8.20;;;4.15;;
49237;SDS011;35069;47.906;1.892;2024-01-30T10:34:27;8.75;;;4.40;;
49237;SDS011;35069;47.906;1.892;2024-01-30T10:37:04;6.00;;;4.63;;
49237;SDS011;35069;47.906;1.892;2024-01-30T10:39:37;15.55;;;5.25;;
49237;SDS011;35069;47.906;1.892;2024-01-30T10:42:04;14.52;;;4.95;;
49237;SDS011;35069;47.906;1.892;2024-01-30T10:47:28;9.27;;;5.63;;
49237;SDS011;35069;47.906;1.892;2024-01-30T10:49:55;12.95;;;4.82;;
49237;SDS011;35069;47.906;1.892;2024-01-30T10:52:21;8.10;;;4.60;;
49237;SDS011;35069;47.906;1.892;2024-01-30T10:54:49;9.77;;;5.00;;
49237;SDS011;35069;47.906;1.892;2024-01-30T10:57:16;16.52;;;7.72;;
49237;SDS011;35069;47.906;1.892;2024-01-30T10:59:42;12.25;;;6.47;;
49237;SDS011;35069;47.906;1.892;2024-01-30T11:02:09;9.48;;;5.97;;
49237;SDS011;35069;47.906;1.892;2024-01-30T11:04:36;11.70;;;6.97;;
49237;SDS011;35069;47.906;1.892;2024-01-30T11:07:13;20.55;;;11.05;;
49237;SDS011;35069;47.906;1.892;2024-01-30T11:09:51;20.08;;;9.57;;
49237;SDS011;35069;47.906;1.892;2024-01-30T11:12:28;21.58;;;11.75;;
49237;SDS011;35069;47.906;1.892;2024-01-30T11:15:04;11.43;;;7.15;;
49237;SDS011;35069;47.906;1.892;2024-01-30T11:20:19;10.68;;;6.32;;
49237;SDS011;35069;47.906;1.892;2024-01-30T11:23:00;14.88;;;7.22;;
49237;SDS011;35069;47.906;1.892;2024-01-30T11:25:32;9.70;;;6.00;;
49237;SDS011;35069;47.906;1.892;2024-01-30T11:27:58;10.45;;;7.65;;
49237;SDS011;35069;47.906;1.892;2024-01-30T11:30:27;12.90;;;7.78;;
49237;SDS011;35069;47.906;1.892;2024-01-30T11:35:29;9.10;;;6.85;;
49237;SDS011;35069;47.906;1.892;2024-01-30T11:37:58;19.38;;;8.45;;
49237;SDS011;35069;47.906;1.892;2024-01-30T11:40:26;15.15;;;7.13;;
49237;SDS011;35069;47.906;1.892;2024-01-30T11:42:56;10.63;;;6.47;;
49237;SDS011;35069;47.906;1.892;2024-01-30T11:45:23;8.80;;;6.15;;
49237;SDS011;35069;47.906;1.892;2024-01-30T11:47:49;10.57;;;6.95;;
49237;SDS011;35069;47.906;1.892;2024-01-30T11:50:15;11.23;;;6.78;;
49237;SDS011;35069;47.906;1.892;2024-01-30T11:52:41;12.20;;;7.30;;
49237;SDS011;35069;47.906;1.892;2024-01-30T11:55:08;18.85;;;10.30;;
49237;SDS011;35069;47.906;1.892;2024-01-30T11:57:35;12.25;;;6.53;;
49237;SDS011;35069;47.906;1.892;2024-01-30T12:00:02;16.63;;;9.38;;
49237;SDS011;35069;47.906;1.892;2024-01-30T12:02:38;14.55;;;7.60;;
49237;SDS011;35069;47.906;1.892;2024-01-30T12:05:05;15.18;;;6.55;;
49237;SDS011;35069;47.906;1.892;2024-01-30T12:07:31;13.38;;;6.68;;
49237;SDS011;35069;47.906;1.892;2024-01-30T12:09:57;11.85;;;6.78;;
49237;SDS011;35069;47.906;1.892;2024-01-30T12:12:24;13.73;;;7.35;;
49237;SDS011;35069;47.906;1.892;2024-01-30T12:14:50;13.50;;;7.85;;
49237;SDS011;35069;47.906;1.892;2024-01-30T12:22:31;10.25;;;8.43;;
49237;SDS011;35069;47.906;1.892;2024-01-30T12:25:13;10.80;;;6.53;;
49237;SDS011;35069;47.906;1.892;2024-01-30T12:27:44;10.70;;;7.05;;
49237;SDS011;35069;47.906;1.892;2024-01-30T12:30:14;15.60;;;8.35;;
49237;SDS011;35069;47.906;1.892;2024-01-30T12:32:41;14.32;;;7.30;;
49237;SDS011;35069;47.906;1.892;2024-01-30T12:35:11;14.38;;;7.13;;
49237;SDS011;35069;47.906;1.892;2024-01-30T12:37:38;12.70;;;7.13;;
49237;SDS011;35069;47.906;1.892;2024-01-30T12:40:05;8.95;;;7.50;;
49237;SDS011;35069;47.906;1.892;2024-01-30T12:42:32;10.15;;;6.60;;
49237;SDS011;35069;47.906;1.892;2024-01-30T12:44:58;11.65;;;7.28;;
49237;SDS011;35069;47.906;1.892;2024-01-30T12:47:24;15.27;;;8.05;;
49237;SDS011;35069;47.906;1.892;2024-01-30T12:49:50;12.70;;;6.55;;
49237;SDS011;35069;47.906;1.892;2024-01-30T12:52:18;13.55;;;7.43;;
49237;SDS011;35069;47.906;1.892;2024-01-30T12:54:44;9.98;;;7.13;;
49237;SDS011;35069;47.906;1.892;2024-01-30T12:57:10;13.73;;;6.95;;
49237;SDS011;35069;47.906;1.892;2024-01-30T12:59:36;12.10;;;6.85;;
49237;SDS011;35069;47.906;1.892;2024-01-30T13:02:01;19.40;;;7.63;;
49237;SDS011;35069;47.906;1.892;2024-01-30T13:04:28;14.98;;;8.20;;
49237;SDS011;35069;47.906;1.892;2024-01-30T13:06:54;10.45;;;7.13;;
49237;SDS011;35069;47.906;1.892;2024-01-30T13:09:20;10.93;;;6.07;;
49237;SDS011;35069;47.906;1.892;2024-01-30T13:11:46;11.55;;;8.23;;
49237;SDS011;35069;47.906;1.892;2024-01-30T13:14:12;14.00;;;7.50;;
49237;SDS011;35069;47.906;1.892;2024-01-30T13:16:37;14.60;;;7.38;;
49237;SDS011;35069;47.906;1.892;2024-01-30T13:19:03;14.00;;;7.43;;
49237;SDS011;35069;47.906;1.892;2024-01-30T13:21:29;13.68;;;7.68;;
49237;SDS011;35069;47.906;1.892;2024-01-30T13:23:55;16.80;;;7.65;;
49237;SDS011;35069;47.906;1.892;2024-01-30T13:26:20;15.23;;;7.80;;
49237;SDS011;35069;47.906;1.892;2024-01-30T13:28:46;9.32;;;7.28;;
49237;SDS011;35069;47.906;1.892;2024-01-30T13:31:12;13.95;;;7.95;;
49237;SDS011;35069;47.906;1.892;2024-01-30T13:33:41;13.85;;;7.82;;
49237;SDS011;35069;47.906;1.892;2024-01-30T13:36:07;13.80;;;6.95;;
49237;SDS011;35069;47.906;1.892;2024-01-30T13:38:34;12.85;;;7.57;;
49237;SDS011;35069;47.906;1.892;2024-01-30T13:40:59;12.68;;;6.95;;
49237;SDS011;35069;47.906;1.892;2024-01-30T13:43:25;16.17;;;8.98;;
49237;SDS011;35069;47.906;1.892;2024-01-30T13:45:51;14.77;;;8.23;;
49237;SDS011;35069;47.906;1.892;2024-01-30T13:48:17;12.75;;;8.25;;
49237;SDS011;35069;47.906;1.892;2024-01-30T13:50:43;15.77;;;8.63;;
49237;SDS011;35069;47.906;1.892;2024-01-30T13:53:08;14.10;;;8.48;;
49237;SDS011;35069;47.906;1.892;2024-01-30T13:55:34;18.83;;;9.75;;
49237;SDS011;35069;47.906;1.892;2024-01-30T13:57:59;15.05;;;7.45;;
49237;SDS011;35069;47.906;1.892;2024-01-30T14:00:26;12.63;;;7.13;;
49237;SDS011;35069;47.906;1.892;2024-01-30T14:02:52;15.63;;;8.70;;
49237;SDS011;35069;47.906;1.892;2024-01-30T14:05:20;10.50;;;7.13;;
49237;SDS011;35069;47.906;1.892;2024-01-30T14:07:46;10.88;;;8.05;;
49237;SDS011;35069;47.906;1.892;2024-01-30T14:10:34;9.40;;;7.55;;
49237;SDS011;35069;47.906;1.892;2024-01-30T14:13:00;10.48;;;6.55;;
49237;SDS011;35069;47.906;1.892;2024-01-30T14:15:25;16.17;;;6.82;;
49237;SDS011;35069;47.906;1.892;2024-01-30T14:17:51;11.30;;;7.63;;
49237;SDS011;35069;47.906;1.892;2024-01-30T14:20:17;13.98;;;8.35;;
49237;SDS011;35069;47.906;1.892;2024-01-30T14:22:42;22.38;;;7.70;;
49237;SDS011;35069;47.906;1.892;2024-01-30T14:25:08;16.08;;;6.90;;
49237;SDS011;35069;47.906;1.892;2024-01-30T14:27:34;9.68;;;6.90;;
49237;SDS011;35069;47.906;1.892;2024-01-30T14:30:00;15.38;;;6.50;;
49237;SDS011;35069;47.906;1.892;2024-01-30T14:32:26;15.32;;;7.05;;
49237;SDS011;35069;47.906;1.892;2024-01-30T14:34:52;10.82;;;7.95;;
49237;SDS011;35069;47.906;1.892;2024-01-30T14:37:17;14.88;;;6.93;;
49237;SDS011;35069;47.906;1.892;2024-01-30T14:39:44;20.85;;;7.05;;
49237;SDS011;35069;47.906;1.892;2024-01-30T14:42:10;7.65;;;6.35;;
49237;SDS011;35069;47.906;1.892;2024-01-30T14:44:35;12.73;;;7.55;;
49237;SDS011;35069;47.906;1.892;2024-01-30T14:47:01;17.30;;;7.82;;
49237;SDS011;35069;47.906;1.892;2024-01-30T14:49:27;10.88;;;6.22;;
49237;SDS011;35069;47.906;1.892;2024-01-30T14:51:53;11.50;;;7.00;;
49237;SDS011;35069;47.906;1.892;2024-01-30T14:54:18;7.80;;;6.68;;